createdAt,value
2019-02-23T00:01:49.898Z,29.17
2019-02-23T00:07:42.843Z,28.53
2019-02-23T00:10:25.407Z,28.73
2019-02-23T00:13:15.205Z,28.10
2019-02-23T00:15:57.256Z,24.70
2019-02-23T00:18:46.985Z,25.53
2019-02-23T00:21:36.770Z,26.10
2019-02-23T00:24:26.499Z,28.67
2019-02-23T00:27:16.698Z,27.40
2019-02-23T00:30:06.538Z,27.63
2019-02-23T00:33:09.176Z,29.83
2019-02-23T00:35:52.448Z,27.50
2019-02-23T00:38:42.309Z,29.20
2019-02-23T00:41:25.071Z,27.30
2019-02-23T00:44:14.863Z,28.40
2019-02-23T00:46:57.270Z,30.63
2019-02-23T00:49:47.044Z,31.17
2019-02-23T00:52:36.935Z,28.50
2019-02-23T00:55:26.832Z,29.13
2019-02-23T00:58:16.612Z,30.37
2019-02-23T01:01:06.330Z,29.47
2019-02-23T01:03:49.272Z,31.20
2019-02-23T01:06:39.014Z,30.37
2019-02-23T01:09:28.823Z,29.37
2019-02-23T01:12:18.568Z,34.87
2019-02-23T01:15:00.870Z,32.17
2019-02-23T01:17:43.829Z,32.30
2019-02-23T01:20:33.568Z,32.07
2019-02-23T01:23:23.352Z,35.87
2019-02-23T01:26:13.256Z,30.50
2019-02-23T01:29:22.193Z,43.63
2019-02-23T01:32:12.034Z,31.37
2019-02-23T01:35:01.759Z,25.30
2019-02-23T01:37:44.573Z,28.87
2019-02-23T01:40:34.340Z,22.83
2019-02-23T01:43:24.137Z,25.27
2019-02-23T01:52:12.737Z,25.87
2019-02-23T01:55:02.489Z,24.63
2019-02-23T01:57:44.694Z,23.90
2019-02-23T02:00:34.828Z,23.47
2019-02-23T02:03:17.097Z,25.83
2019-02-23T02:06:06.825Z,24.50
2019-02-23T02:08:49.087Z,24.70
2019-02-23T02:11:38.845Z,20.57
2019-02-23T02:14:21.741Z,21.33
2019-02-23T02:20:14.741Z,24.60
2019-02-23T02:26:06.205Z,21.07
2019-02-23T02:29:15.138Z,21.10
2019-02-23T02:31:57.427Z,22.20
2019-02-23T02:34:47.130Z,23.57
2019-02-23T02:37:29.331Z,21.63
2019-02-23T02:40:19.029Z,23.50
2019-02-23T02:43:01.530Z,24.03
2019-02-23T02:45:51.257Z,22.33
2019-02-23T02:48:35.039Z,24.23
2019-02-23T02:54:26.199Z,24.63
2019-02-23T02:57:15.936Z,23.40
2019-02-23T02:59:58.548Z,25.43
2019-02-23T03:02:48.340Z,20.63
2019-02-23T03:05:30.504Z,22.17
2019-02-23T03:08:20.221Z,23.07
2019-02-23T03:11:03.568Z,22.77
2019-02-23T03:13:53.325Z,22.67
2019-02-23T03:16:35.780Z,22.10
2019-02-23T03:19:25.878Z,24.03
2019-02-23T03:22:08.200Z,23.53
2019-02-23T03:24:57.927Z,24.20
2019-02-23T03:27:40.366Z,21.37
2019-02-23T03:30:22.779Z,22.43
2019-02-23T03:33:12.615Z,22.37
2019-02-23T03:36:02.391Z,23.20
2019-02-23T03:38:52.179Z,21.93
2019-02-23T03:41:41.917Z,24.47
2019-02-23T03:44:31.650Z,28.07
2019-02-23T03:47:21.394Z,28.77
2019-02-23T03:50:03.407Z,29.17
2019-02-23T03:52:53.340Z,29.03
2019-02-23T03:55:43.164Z,25.90
2019-02-23T03:58:32.919Z,24.90
2019-02-23T04:01:03.546Z,25.63
2019-02-23T04:03:53.347Z,23.00
2019-02-23T04:06:35.742Z,26.73
2019-02-23T04:09:25.633Z,25.13
2019-02-23T04:12:10.036Z,24.57
2019-02-23T04:14:52.610Z,25.67
2019-02-23T04:17:42.384Z,26.50
2019-02-23T04:20:32.240Z,26.30
2019-02-23T04:23:21.980Z,25.50
2019-02-23T04:26:04.432Z,26.87
2019-02-23T04:28:54.197Z,28.23
2019-02-23T04:31:36.528Z,27.40
2019-02-23T04:34:26.445Z,30.60
2019-02-23T04:37:16.206Z,30.03
2019-02-23T04:43:00.507Z,27.90
2019-02-23T04:45:50.307Z,26.40
2019-02-23T04:48:40.236Z,25.03
2019-02-23T04:51:30.049Z,25.63
2019-02-23T04:54:19.788Z,20.97
2019-02-23T04:57:09.660Z,22.40
2019-02-23T05:00:11.712Z,20.03
2019-02-23T05:02:54.119Z,21.23
2019-02-23T05:05:43.842Z,18.77
2019-02-23T05:08:26.301Z,17.93
2019-02-23T05:11:15.998Z,19.13
2019-02-23T05:13:58.049Z,19.47
2019-02-23T05:16:40.000Z,17.23
2019-02-23T05:19:29.915Z,18.67
2019-02-23T05:22:19.675Z,19.33
2019-02-23T05:25:09.465Z,18.50
2019-02-23T05:27:59.161Z,17.23
2019-02-23T05:30:41.676Z,15.93
2019-02-23T05:33:31.437Z,18.87
2019-02-23T05:36:13.397Z,25.27
2019-02-23T05:42:08.444Z,20.50
2019-02-23T05:44:50.628Z,22.40
2019-02-23T05:47:40.455Z,20.23
2019-02-23T05:50:30.509Z,23.50
2019-02-23T05:53:20.275Z,22.67
2019-02-23T05:56:29.172Z,22.50
2019-02-23T05:59:19.299Z,22.93
2019-02-23T06:02:09.062Z,24.50
2019-02-23T06:10:15.413Z,25.07
2019-02-23T06:13:05.175Z,22.73
2019-02-23T06:15:46.863Z,24.80
2019-02-23T06:18:29.381Z,21.47
2019-02-23T06:21:19.134Z,24.53
2019-02-23T06:23:49.860Z,27.47
2019-02-23T06:26:39.647Z,26.00
2019-02-23T06:29:29.407Z,25.13
2019-02-23T06:32:19.155Z,25.37
2019-02-23T06:35:09.207Z,23.97
2019-02-23T06:37:58.997Z,22.10
2019-02-23T06:40:48.757Z,22.93
2019-02-23T06:43:38.523Z,24.00
2019-02-23T06:46:28.305Z,22.63
2019-02-23T06:49:18.077Z,22.83
2019-02-23T06:52:07.837Z,22.33
2019-02-23T06:54:50.283Z,22.37
2019-02-23T06:57:40.051Z,24.37
2019-02-23T07:00:29.875Z,23.60
2019-02-23T07:03:38.775Z,21.87
2019-02-23T07:06:28.538Z,22.57
2019-02-23T07:09:18.362Z,21.60
2019-02-23T07:12:00.963Z,24.00
2019-02-23T07:14:50.729Z,18.70
2019-02-23T07:17:40.511Z,23.00
2019-02-23T07:20:30.323Z,21.20
2019-02-23T07:23:20.151Z,19.70
2019-02-23T07:26:09.918Z,20.27
2019-02-23T07:28:59.734Z,23.97
2019-02-23T07:31:49.496Z,22.40
2019-02-23T07:34:39.289Z,22.03
2019-02-23T07:37:28.988Z,23.87
2019-02-23T07:40:18.719Z,21.87
2019-02-23T07:43:08.442Z,21.33
2019-02-23T07:45:50.565Z,20.63
2019-02-23T07:48:40.292Z,21.07
2019-02-23T07:51:22.842Z,20.17
2019-02-23T07:54:12.585Z,22.13
2019-02-23T07:56:55.345Z,22.37
2019-02-23T07:59:45.068Z,20.17
2019-02-23T08:02:34.792Z,21.60
2019-02-23T08:05:24.568Z,20.13
2019-02-23T08:08:14.268Z,19.17
2019-02-23T08:10:56.510Z,23.10
2019-02-23T08:14:05.346Z,20.63
2019-02-23T08:16:55.106Z,23.20
2019-02-23T08:19:37.781Z,22.17
2019-02-23T08:22:37.016Z,21.20
2019-02-23T08:25:11.926Z,19.87
2019-02-23T08:28:20.828Z,20.00
2019-02-23T08:31:13.212Z,19.37
2019-02-23T08:33:54.889Z,22.07
2019-02-23T08:36:44.660Z,22.87
2019-02-23T08:39:34.517Z,17.50
2019-02-23T08:42:24.613Z,22.93
2019-02-23T08:45:14.445Z,21.53
2019-02-23T08:48:04.149Z,17.07
2019-02-23T08:50:46.387Z,18.67
2019-02-23T08:53:36.492Z,15.50
2019-02-23T08:56:26.288Z,15.43
2019-02-23T08:59:16.054Z,15.23
2019-02-23T09:02:17.804Z,15.27
2019-02-23T09:04:59.858Z,17.57
2019-02-23T09:07:49.622Z,18.77
2019-02-23T09:10:39.401Z,18.77
2019-02-23T09:13:29.228Z,16.40
2019-02-23T09:16:32.289Z,17.20
2019-02-23T09:19:14.656Z,17.90
2019-02-23T09:22:04.385Z,17.10
2019-02-23T09:24:46.535Z,16.50
2019-02-23T09:27:36.249Z,14.23
2019-02-23T09:30:18.480Z,15.10
2019-02-23T09:33:08.249Z,15.93
2019-02-23T09:35:51.006Z,14.90
2019-02-23T09:38:40.759Z,17.93
2019-02-23T09:41:23.790Z,19.50
2019-02-23T09:44:13.535Z,16.50
2019-02-23T09:46:57.115Z,16.13
2019-02-23T09:49:46.837Z,18.67
2019-02-23T09:52:36.607Z,16.33
2019-02-23T09:55:18.853Z,17.03
2019-02-23T09:58:08.614Z,18.13
2019-02-23T10:00:58.408Z,14.10
2019-02-23T10:04:00.487Z,14.73
2019-02-23T10:06:42.961Z,17.43
2019-02-23T10:09:47.988Z,15.27
2019-02-23T10:12:16.995Z,15.13
2019-02-23T10:15:07.066Z,15.37
2019-02-23T10:17:56.981Z,13.27
2019-02-23T10:20:39.887Z,16.00
2019-02-23T10:23:29.645Z,15.47
2019-02-23T10:26:19.407Z,15.20
2019-02-23T10:29:02.477Z,16.70
2019-02-23T10:31:33.141Z,13.47
2019-02-23T10:34:22.877Z,13.53
2019-02-23T10:37:06.365Z,12.23
2019-02-23T10:39:56.143Z,12.20
2019-02-23T10:45:39.821Z,12.77
2019-02-23T10:48:42.298Z,13.63
2019-02-23T10:51:24.243Z,13.07
2019-02-23T10:54:14.024Z,11.90
2019-02-23T10:56:56.377Z,11.30
2019-02-23T10:59:46.120Z,12.27
2019-02-23T11:02:28.453Z,10.07
2019-02-23T11:08:21.138Z,11.13
2019-02-23T11:11:10.853Z,12.27
2019-02-23T11:13:53.808Z,12.33
2019-02-23T11:16:43.556Z,10.47
2019-02-23T11:19:26.221Z,10.20
2019-02-23T11:25:17.616Z,11.37
2019-02-23T11:28:07.337Z,9.20
2019-02-23T11:30:49.542Z,8.93
2019-02-23T11:33:39.232Z,9.07
2019-02-23T11:36:21.321Z,9.37
2019-02-23T11:39:11.216Z,10.73
2019-02-23T11:41:53.304Z,7.33
2019-02-23T11:47:38.072Z,7.53
2019-02-23T11:50:27.988Z,7.53
2019-02-23T11:53:17.814Z,7.37
2019-02-23T11:56:07.594Z,7.40
2019-02-23T11:58:57.358Z,7.13
2019-02-23T12:01:47.175Z,6.90
2019-02-23T12:04:37.239Z,12.70
2019-02-23T12:07:27.010Z,7.43
2019-02-23T12:10:35.874Z,8.30
2019-02-23T12:13:25.994Z,6.70
2019-02-23T12:22:18.544Z,8.60
2019-02-23T12:25:08.635Z,8.47
2019-02-23T12:27:58.366Z,9.13
2019-02-23T12:30:40.998Z,8.20
2019-02-23T12:33:30.824Z,8.20
2019-02-23T12:36:20.520Z,7.93
2019-02-23T12:39:10.328Z,8.40
2019-02-23T12:41:59.275Z,9.30
2019-02-23T12:44:49.096Z,11.63
2019-02-23T12:50:42.458Z,7.33
2019-02-23T12:53:24.852Z,8.23
2019-02-23T12:56:14.653Z,6.80
2019-02-23T12:59:04.370Z,7.00
2019-02-23T13:01:46.572Z,6.60
2019-02-23T13:04:36.360Z,6.77
2019-02-23T13:07:26.147Z,6.93
2019-02-23T13:13:57.700Z,5.57
2019-02-23T13:16:43.660Z,6.20
2019-02-23T13:20:11.572Z,6.07
2019-02-23T13:23:40.180Z,6.57
2019-02-23T13:27:00.279Z,7.30
2019-02-23T13:30:28.100Z,7.03
2019-02-23T13:36:48.070Z,8.57
2019-02-23T13:39:34.913Z,6.03
2019-02-23T13:43:02.837Z,6.83
2019-02-23T13:46:14.682Z,7.30
2019-02-23T13:49:17.609Z,6.63
2019-02-23T13:52:45.448Z,6.97
2019-02-23T13:55:47.295Z,7.17
2019-02-23T13:58:47.664Z,6.20
2019-02-23T14:02:14.551Z,5.50
2019-02-23T14:05:22.291Z,4.97
2019-02-23T14:08:50.206Z,6.67
2019-02-23T14:11:51.538Z,7.10
2019-02-23T14:15:19.412Z,5.07
2019-02-23T14:18:47.465Z,5.47
2019-02-23T14:22:10.222Z,5.07
2019-02-23T14:25:38.081Z,5.20
2019-02-23T14:32:12.617Z,6.60
2019-02-23T14:35:29.452Z,9.17
2019-02-23T14:38:31.765Z,5.77
2019-02-23T14:41:33.763Z,4.93
2019-02-23T14:44:30.295Z,4.93
2019-02-23T14:47:46.170Z,6.10
2019-02-23T14:50:53.952Z,4.50
2019-02-23T14:53:52.079Z,5.60
2019-02-23T14:56:42.389Z,5.63
2019-02-23T14:59:44.409Z,5.27
2019-02-23T15:03:12.383Z,5.50
2019-02-23T15:05:58.047Z,4.40
2019-02-23T15:09:03.456Z,6.33
2019-02-23T15:12:31.327Z,8.10
2019-02-23T15:15:59.230Z,3.50
2019-02-23T15:19:27.144Z,6.23
2019-02-23T15:22:55.034Z,4.00
2019-02-23T15:26:22.906Z,4.70
2019-02-23T15:29:11.437Z,5.30
2019-02-23T15:32:39.361Z,4.97
2019-02-23T15:35:35.466Z,4.37
2019-02-23T15:39:03.536Z,6.57
2019-02-23T15:42:31.422Z,6.13
2019-02-23T15:49:02.175Z,3.97
2019-02-23T15:51:44.575Z,3.63
2019-02-23T15:54:34.390Z,4.37
2019-02-23T15:57:24.141Z,3.63
2019-02-23T16:00:14.088Z,3.27
2019-02-23T16:03:03.848Z,5.73
2019-02-23T16:05:53.577Z,3.23
2019-02-23T16:09:02.105Z,4.70
2019-02-23T16:11:51.827Z,4.10
2019-02-23T16:14:34.533Z,4.03
2019-02-23T16:17:05.220Z,3.40
2019-02-23T16:19:54.919Z,5.37
2019-02-23T16:22:37.354Z,3.73
2019-02-23T16:25:38.082Z,6.27
2019-02-23T16:28:10.999Z,4.50
2019-02-23T16:31:00.778Z,5.27
2019-02-23T16:33:43.394Z,3.73
2019-02-23T16:36:33.166Z,3.37
2019-02-23T16:39:15.764Z,3.63
2019-02-23T16:45:07.457Z,3.33
2019-02-23T16:47:57.178Z,4.07
2019-02-23T16:50:39.458Z,5.67
2019-02-23T16:53:29.188Z,4.03
2019-02-23T16:56:11.542Z,5.00
2019-02-23T16:59:01.262Z,5.30
2019-02-23T17:01:43.650Z,4.03
2019-02-23T17:04:33.410Z,4.47
2019-02-23T17:07:15.488Z,3.07
2019-02-23T17:10:05.224Z,3.57
2019-02-23T17:12:47.584Z,4.23
2019-02-23T17:15:50.334Z,3.73
2019-02-23T17:18:32.796Z,7.00
2019-02-23T17:21:22.538Z,5.60
2019-02-23T17:24:04.443Z,6.67
2019-02-23T17:26:54.257Z,3.50
2019-02-23T17:29:36.757Z,4.87
2019-02-23T17:32:26.456Z,3.67
2019-02-23T17:35:08.822Z,4.40
2019-02-23T17:37:58.564Z,3.93
2019-02-23T17:40:40.798Z,5.10
2019-02-23T17:43:30.515Z,3.40
2019-02-23T17:46:16.353Z,4.03
2019-02-23T17:49:06.207Z,4.30
2019-02-23T17:51:48.600Z,5.47
2019-02-23T17:54:38.281Z,5.50
2019-02-23T17:57:28.004Z,5.27
2019-02-23T18:00:10.778Z,4.70
2019-02-23T18:03:00.599Z,4.87
2019-02-23T18:05:50.384Z,5.00
2019-02-23T18:08:40.171Z,7.87
2019-02-23T18:11:30.018Z,4.20
2019-02-23T18:14:38.812Z,4.90
2019-02-23T18:17:28.512Z,6.33
2019-02-23T18:20:11.185Z,4.53
2019-02-23T18:23:00.961Z,5.17
2019-02-23T18:25:50.787Z,6.57
2019-02-23T18:28:40.583Z,6.83
2019-02-23T18:31:43.631Z,4.27
2019-02-23T18:34:25.601Z,4.93
2019-02-23T18:37:15.339Z,3.93
2019-02-23T18:40:05.167Z,4.47
2019-02-23T18:42:47.405Z,5.57
2019-02-23T18:45:37.237Z,4.93
2019-02-23T18:48:42.581Z,5.67
2019-02-23T18:51:25.419Z,5.47
2019-02-23T18:59:54.090Z,6.20
2019-02-23T19:02:43.876Z,5.80
2019-02-23T19:05:33.642Z,5.23
2019-02-23T19:08:23.385Z,5.87
2019-02-23T19:11:13.186Z,4.60
2019-02-23T19:14:02.985Z,5.83
2019-02-23T19:17:05.619Z,5.90
2019-02-23T19:19:47.620Z,4.77
2019-02-23T19:22:37.330Z,5.27
2019-02-23T19:25:19.966Z,6.37
2019-02-23T19:28:02.143Z,4.57
2019-02-23T19:30:51.907Z,5.83
2019-02-23T19:33:41.727Z,6.10
2019-02-23T19:36:31.453Z,6.20
2019-02-23T19:39:13.977Z,7.73
2019-02-23T19:42:03.803Z,6.77
2019-02-23T19:44:53.573Z,4.57
2019-02-23T19:47:43.359Z,5.93
2019-02-23T19:50:36.989Z,5.87
2019-02-23T19:53:26.717Z,6.17
2019-02-23T19:56:16.511Z,6.00
2019-02-23T19:59:06.274Z,6.53
2019-02-23T20:01:56.139Z,7.03
2019-02-23T20:04:38.369Z,6.00
2019-02-23T20:07:20.381Z,6.13
2019-02-23T20:10:10.230Z,6.97
2019-02-23T20:12:53.125Z,6.53
2019-02-23T20:15:35.419Z,6.03
2019-02-23T20:18:18.292Z,8.87
2019-02-23T20:21:20.183Z,8.13
2019-02-23T20:24:02.415Z,6.40
2019-02-23T20:29:37.114Z,6.13
2019-02-23T20:32:27.027Z,6.80
2019-02-23T20:35:09.509Z,6.03
2019-02-23T20:37:59.223Z,6.60
2019-02-23T20:40:41.836Z,6.93
2019-02-23T20:43:31.856Z,8.23
2019-02-23T20:46:14.850Z,5.70
2019-02-23T20:49:04.645Z,6.53
2019-02-23T20:51:46.984Z,5.63
2019-02-23T20:57:31.396Z,6.70
2019-02-23T21:00:21.292Z,5.70
2019-02-23T21:03:11.078Z,7.67
2019-02-23T21:08:36.818Z,7.00
2019-02-23T21:11:07.532Z,7.37
2019-02-23T21:13:57.231Z,6.97
2019-02-23T21:19:43.483Z,6.70
2019-02-23T21:22:33.228Z,6.90
2019-02-23T21:25:15.662Z,5.10
2019-02-23T21:31:00.690Z,6.47
2019-02-23T21:33:50.450Z,7.70
2019-02-23T21:36:41.891Z,6.10
2019-02-23T21:39:24.709Z,5.57
2019-02-23T21:42:14.514Z,5.93
2019-02-23T21:45:04.512Z,6.37
2019-02-23T21:47:54.350Z,6.60
2019-02-23T21:50:44.026Z,5.47
2019-02-23T21:53:52.974Z,7.17
2019-02-23T21:56:42.765Z,6.70
2019-02-23T21:59:32.455Z,6.30
2019-02-23T22:02:22.255Z,6.77
2019-02-23T22:05:12.829Z,6.70
2019-02-23T22:07:59.525Z,6.13
2019-02-23T22:10:49.314Z,6.27
2019-02-23T22:13:39.096Z,6.87
2019-02-23T22:16:47.924Z,6.00
2019-02-23T22:19:56.749Z,6.67
2019-02-23T22:22:46.527Z,8.60
2019-02-23T22:25:36.321Z,6.73
2019-02-23T22:28:26.096Z,6.10
2019-02-23T22:31:15.869Z,6.33
2019-02-23T22:34:05.811Z,6.27
2019-02-23T22:36:47.961Z,11.90
2019-02-23T22:39:37.733Z,5.90
2019-02-23T22:42:27.573Z,6.50
2019-02-23T22:45:17.561Z,7.50
2019-02-23T22:48:07.367Z,6.40
2019-02-23T22:51:16.194Z,5.03
2019-02-23T22:54:06.045Z,5.73
2019-02-23T22:56:55.853Z,6.80
2019-02-23T22:59:45.655Z,5.70
2019-02-23T23:02:35.419Z,9.10
2019-02-23T23:08:07.443Z,6.03
2019-02-23T23:10:57.133Z,7.10
2019-02-23T23:16:42.890Z,5.50
2019-02-23T23:19:32.895Z,6.50
2019-02-23T23:22:15.353Z,6.33
2019-02-23T23:25:05.131Z,6.30
2019-02-23T23:27:49.668Z,5.43
2019-02-23T23:30:39.377Z,9.30
2019-02-23T23:33:21.600Z,8.40
2019-02-23T23:36:11.341Z,5.67
2019-02-23T23:38:53.632Z,6.33
2019-02-23T23:41:43.375Z,8.63
2019-02-23T23:44:26.003Z,5.20
2019-02-23T23:47:15.751Z,7.30
2019-02-23T23:49:58.073Z,6.00
2019-02-23T23:52:47.965Z,6.70
2019-02-23T23:55:37.854Z,6.73
2019-02-23T23:58:28.221Z,7.43
